Time;durP1;ratioP1;P1;durP2;ratioP2;P2;SDS_P1;SDS_P2;PMS_P1;PMS_P2;Temp;Humidity;BMP_temperature;BMP_pressure;BME280_temperature;BME280_humidity;BME280_pressure;Samples;Min_cycle;Max_cycle;Signal;HPM_P1;HPM_P2
2023/07/03 00:43:23;;;;;;;11.65;7.40;;;;;;;;;;4807129;29;20041;-74
2023/07/03 01:13:46;;;;;;;11.60;8.15;;;;;;;;;;4868997;29;20105;-75
2023/07/03 01:33:16;;;;;;;;;;;;;;;;;;;;;
2023/07/03 01:56:00;;;;;;;;;;;;;;;;;;;;;
2023/07/03 02:30:45;;;;;;;15.30;8.63;;;;;;;;;;4647153;30;20102;-74
2023/07/03 02:42:19;;;;;;;;;;;;;;;;;;;;;
2023/07/03 02:45:47;;;;;;;15.18;9.00;;;;;;;;;;4647858;30;20061;-74
2023/07/03 02:49:52;;;;;;;;;;;;;;;;;;;;;
2023/07/03 03:43:41;;;;;;;13.68;8.60;;;;;;;;;;4684706;30;20143;-75
2023/07/03 03:46:39;;;;;;;16.42;8.60;;;;;;;;;;4661945;30;20611;-76
2023/07/03 03:50:38;;;;;;;14.48;9.50;;;;;;;;;;4705150;30;20055;-77
2023/07/03 03:53:10;;;;;;;16.92;9.57;;;;;;;;;;4675046;30;20639;-76
2023/07/03 04:15:04;;;;;;;16.35;9.50;;;;;;;;;;4718204;30;20185;-74
2023/07/03 04:26:35;;;;;;;;;;;;;;;;;;;;;
2023/07/03 04:45:45;;;;;;;;;;;;;;;;;;;;;
2023/07/03 05:07:23;;;;;;;14.05;9.38;;;;;;;;;;4822259;29;20129;-71
2023/07/03 05:14:11;;;;;;;15.27;9.30;;;;;;;;;;4833769;29;20046;-74
2023/07/03 05:17:49;;;;;;;17.48;9.52;;;;;;;;;;4827444;29;20048;-74
2023/07/03 05:29:26;;;;;;;16.35;9.55;;;;;;;;;;4789190;29;20058;-74
2023/07/03 05:36:20;;;;;;;16.38;9.48;;;;;;;;;;4802297;29;20041;-74
2023/07/03 05:42:50;;;;;;;19.13;9.73;;;;;;;;;;4807679;29;20186;-71
2023/07/03 06:05:16;;;;;;;17.92;10.23;;;;;;;;;;4739706;30;20036;-74
2023/07/03 06:12:29;;;;;;;15.88;9.48;;;;;;;;;;4741670;30;20052;-73
2023/07/03 06:19:30;;;;;;;12.75;8.48;;;;;;;;;;4680437;30;20128;-74
2023/07/03 06:22:32;;;;;;;14.25;9.18;;;;;;;;;;4723789;30;20044;-73
2023/07/03 06:25:58;;;;;;;12.52;9.23;;;;;;;;;;4779267;30;20039;-74
2023/07/03 06:33:19;;;;;;;13.70;8.43;;;;;;;;;;4786028;29;20085;-75
2023/07/03 06:44:10;;;;;;;12.10;8.65;;;;;;;;;;4837453;29;20106;-74
2023/07/03 06:47:31;;;;;;;10.30;7.28;;;;;;;;;;4824492;29;20070;-73
2023/07/03 06:50:35;;;;;;;12.63;8.10;;;;;;;;;;4895011;29;20052;-74
2023/07/03 06:54:26;;;;;;;12.18;7.72;;;;;;;;;;4877501;29;20149;-74
2023/07/03 06:58:40;;;;;;;;;;;;;;;;;;;;;
2023/07/03 07:05:04;;;;;;;10.77;6.05;;;;;;;;;;4896418;29;20092;-76
2023/07/03 07:07:56;;;;;;;9.85;6.93;;;;;;;;;;4895602;29;20068;-76
2023/07/03 07:14:30;;;;;;;;;;;;;;;;;;;;;
2023/07/03 07:18:01;;;;;;;10.07;7.03;;;;;;;;;;4933244;29;20058;-76
2023/07/03 07:21:11;;;;;;;12.13;8.00;;;;;;;;;;4918243;29;20383;-75
2023/07/03 07:25:41;;;;;;;12.73;7.32;;;;;;;;;;4922976;29;20051;-75
2023/07/03 07:32:11;;;;;;;10.30;7.20;;;;;;;;;;4924432;28;20046;-76
2023/07/03 07:35:57;;;;;;;13.07;7.45;;;;;;;;;;4990447;28;20042;-77
2023/07/03 07:50:42;;;;;;;8.73;6.55;;;;;;;;;;4796253;29;20070;-74
2023/07/03 08:01:46;;;;;;;9.18;6.45;;;;;;;;;;4784156;29;20050;-76
2023/07/03 08:20:11;;;;;;;7.47;6.18;;;;;;;;;;4787603;29;20129;-74
2023/07/03 08:22:53;;;;;;;9.82;6.05;;;;;;;;;;4819346;29;20046;-75
2023/07/03 08:29:35;;;;;;;8.10;6.10;;;;;;;;;;4820625;29;20050;-76
2023/07/03 08:32:23;;;;;;;7.35;6.47;;;;;;;;;;4815174;29;20581;-76
2023/07/03 08:35:16;;;;;;;8.20;6.78;;;;;;;;;;4820418;29;20493;-73
2023/07/03 08:42:26;;;;;;;11.38;6.93;;;;;;;;;;4953266;29;20039;-74
2023/07/03 08:45:50;;;;;;;7.75;6.35;;;;;;;;;;4957331;28;20099;-75
2023/07/03 08:49:05;;;;;;;8.02;6.20;;;;;;;;;;4941297;29;20047;-74
2023/07/03 08:52:07;;;;;;;9.10;6.35;;;;;;;;;;4939550;29;20039;-75
2023/07/03 08:54:37;;;;;;;7.75;6.05;;;;;;;;;;4955539;29;20072;-74
2023/07/03 08:57:55;;;;;;;8.30;6.70;;;;;;;;;;4952854;28;20035;-76
2023/07/03 09:00:46;;;;;;;10.65;6.78;;;;;;;;;;4956836;28;20277;-73
2023/07/03 10:09:18;;;;;;;;;;;;;;;;;;;;;
2023/07/03 10:24:04;;;;;;;11.20;7.57;;;;;;;;;;4786475;30;20050;-75
2023/07/03 10:35:52;;;;;;;9.88;6.10;;;;;;;;;;4794966;29;20522;-76
2023/07/03 10:50:14;;;;;;;13.82;7.28;;;;;;;;;;4715157;30;20478;-75
2023/07/03 10:53:37;;;;;;;11.00;7.10;;;;;;;;;;4715808;30;20049;-74
2023/07/03 10:56:52;;;;;;;;;;;;;;;;;;;;;
2023/07/03 11:00:00;;;;;;;12.52;7.40;;;;;;;;;;4926896;29;20038;-75
2023/07/03 11:03:08;;;;;;;;;;;;;;;;;;;;;
2023/07/03 11:06:12;;;;;;;11.65;7.53;;;;;;;;;;4955690;28;20042;-74
2023/07/03 11:09:34;;;;;;;12.38;7.35;;;;;;;;;;4977432;28;20034;-74
2023/07/03 11:12:10;;;;;;;12.50;7.35;;;;;;;;;;4990227;28;20038;-75
2023/07/03 11:15:07;;;;;;;10.18;7.07;;;;;;;;;;4991981;28;20060;-74
2023/07/03 11:17:47;;;;;;;14.95;7.65;;;;;;;;;;4985574;28;20038;-74
2023/07/03 11:20:49;;;;;;;12.45;6.82;;;;;;;;;;4980042;28;20030;-75
2023/07/03 11:23:42;;;;;;;10.02;7.47;;;;;;;;;;4941894;29;20109;-75
2023/07/03 11:26:24;;;;;;;;;;;;;;;;;;4992463;28;20133;-73
2023/07/03 11:28:53;;;;;;;10.80;7.57;;;;;;;;;;4992893;28;20391;-75
2023/07/03 11:31:19;;;;;;;10.85;7.40;;;;;;;;;;4993005;28;20029;-75
2023/07/03 11:33:46;;;;;;;8.50;7.05;;;;;;;;;;4993180;28;20034;-76
2023/07/03 11:36:34;;;;;;;12.40;7.78;;;;;;;;;;4992933;28;20022;-74
2023/07/03 11:39:11;;;;;;;12.73;7.00;;;;;;;;;;4992582;28;20095;-75
2023/07/03 11:41:53;;;;;;;9.35;7.18;;;;;;;;;;4993024;28;20034;-73
2023/07/03 11:44:37;;;;;;;10.02;7.30;;;;;;;;;;4992795;28;20034;-73
2023/07/03 11:47:22;;;;;;;13.88;7.20;;;;;;;;;;4992997;28;20428;-73
2023/07/03 11:49:58;;;;;;;11.65;7.10;;;;;;;;;;4992679;28;20045;-73
2023/07/03 11:52:32;;;;;;;13.45;7.30;;;;;;;;;;4993041;28;20038;-74
2023/07/03 11:55:02;;;;;;;11.52;7.38;;;;;;;;;;4992942;28;20488;-73
2023/07/03 11:57:35;;;;;;;10.13;7.88;;;;;;;;;;4992760;28;20090;-75
2023/07/03 12:00:18;;;;;;;9.10;6.82;;;;;;;;;;4992819;28;20034;-74
2023/07/03 12:03:01;;;;;;;8.80;6.55;;;;;;;;;;4992972;28;20484;-74
2023/07/03 12:05:44;;;;;;;10.15;6.43;;;;;;;;;;4995750;28;20080;-74
2023/07/03 12:08:38;;;;;;;8.43;6.20;;;;;;;;;;4994388;28;20429;-73
2023/07/03 12:11:05;;;;;;;10.32;7.15;;;;;;;;;;4987584;28;20041;-74
2023/07/03 12:13:46;;;;;;;10.65;6.55;;;;;;;;;;4992071;28;20023;-74
2023/07/03 12:16:21;;;;;;;8.57;6.53;;;;;;;;;;4992559;28;20145;-74
2023/07/03 12:18:56;;;;;;;9.25;6.85;;;;;;;;;;4992686;28;20066;-74
2023/07/03 12:21:22;;;;;;;11.43;6.30;;;;;;;;;;4992939;28;20385;-74
2023/07/03 12:23:48;;;;;;;8.85;6.80;;;;;;;;;;4975302;28;20026;-73
2023/07/03 12:26:16;;;;;;;8.25;6.43;;;;;;;;;;4992856;28;20038;-73
2023/07/03 12:28:42;;;;;;;11.80;6.63;;;;;;;;;;4992362;28;20031;-73
2023/07/03 12:31:14;;;;;;;8.20;6.70;;;;;;;;;;4997319;28;20125;-72
2023/07/03 12:33:57;;;;;;;9.10;6.33;;;;;;;;;;4992118;28;20038;-72
2023/07/03 12:36:29;;;;;;;9.15;6.40;;;;;;;;;;4996792;28;20034;-74
2023/07/03 12:38:55;;;;;;;8.65;6.35;;;;;;;;;;4991890;28;20027;-73
2023/07/03 12:41:32;;;;;;;10.65;6.78;;;;;;;;;;4995483;28;20031;-76
2023/07/03 12:44:00;;;;;;;8.88;6.22;;;;;;;;;;4992276;28;20452;-74
2023/07/03 12:46:46;;;;;;;8.15;6.35;;;;;;;;;;4991981;28;20022;-73
2023/07/03 12:49:15;;;;;;;9.80;6.38;;;;;;;;;;4991593;28;20049;-74
2023/07/03 12:51:53;;;;;;;9.23;6.82;;;;;;;;;;4991836;28;20484;-74
2023/07/03 12:54:20;;;;;;;11.68;6.50;;;;;;;;;;4991914;28;20034;-73
2023/07/03 12:56:47;;;;;;;9.93;6.20;;;;;;;;;;4999242;28;20014;-73
2023/07/03 12:59:19;;;;;;;8.40;6.50;;;;;;;;;;4992890;28;20030;-74
2023/07/03 13:01:50;;;;;;;8.32;6.10;;;;;;;;;;4992076;28;20037;-73
2023/07/03 13:04:33;;;;;;;11.30;6.57;;;;;;;;;;4991911;28;20133;-73
2023/07/03 13:07:00;;;;;;;8.38;6.47;;;;;;;;;;4992062;28;20117;-73
2023/07/03 13:09:29;;;;;;;9.65;7.13;;;;;;;;;;4990464;28;20030;-73
2023/07/03 13:11:55;;;;;;;9.93;6.80;;;;;;;;;;4989900;28;20037;-73
2023/07/03 13:14:25;;;;;;;9.88;6.63;;;;;;;;;;4991810;28;20026;-73
2023/07/03 13:17:00;;;;;;;8.18;6.50;;;;;;;;;;4992020;28;20034;-74
2023/07/03 13:19:30;;;;;;;10.05;7.10;;;;;;;;;;4983907;28;20088;-75
2023/07/03 13:21:58;;;;;;;8.50;6.60;;;;;;;;;;4999508;28;20042;-75
2023/07/03 13:24:26;;;;;;;9.60;7.25;;;;;;;;;;4991810;28;20109;-71
2023/07/03 13:26:53;;;;;;;7.78;6.50;;;;;;;;;;4996257;28;20046;-73
2023/07/03 13:29:30;;;;;;;8.65;6.78;;;;;;;;;;4997725;28;20431;-74
2023/07/03 13:32:17;;;;;;;8.30;6.13;;;;;;;;;;4997957;28;20030;-75
2023/07/03 13:35:04;;;;;;;8.13;6.15;;;;;;;;;;4984486;28;20054;-76
2023/07/03 13:37:34;;;;;;;8.90;7.20;;;;;;;;;;4979418;28;20045;-75
2023/07/03 13:40:00;;;;;;;9.20;6.95;;;;;;;;;;4994580;28;20030;-75
2023/07/03 13:42:26;;;;;;;8.35;6.88;;;;;;;;;;4994990;28;20052;-75
2023/07/03 13:44:52;;;;;;;8.50;6.47;;;;;;;;;;4995126;28;20050;-75
2023/07/03 13:47:18;;;;;;;9.43;6.97;;;;;;;;;;4994916;28;20034;-75
2023/07/03 13:49:44;;;;;;;11.68;6.90;;;;;;;;;;4994798;28;20046;-75
2023/07/03 13:52:09;;;;;;;8.18;7.05;;;;;;;;;;4994986;28;20484;-74
2023/07/03 13:54:35;;;;;;;16.60;7.28;;;;;;;;;;4994704;28;20038;-74
2023/07/03 13:57:01;;;;;;;10.82;7.20;;;;;;;;;;4994761;28;20033;-73
2023/07/03 13:59:26;;;;;;;8.55;6.70;;;;;;;;;;4994378;28;20030;-73
2023/07/03 14:01:52;;;;;;;9.45;7.10;;;;;;;;;;4994678;28;20045;-73
2023/07/03 14:04:18;;;;;;;8.68;7.32;;;;;;;;;;4994316;28;20042;-74
2023/07/03 14:06:44;;;;;;;12.88;7.55;;;;;;;;;;4993939;28;20026;-73
2023/07/03 14:09:10;;;;;;;8.68;6.97;;;;;;;;;;4993968;28;20535;-74
2023/07/03 14:11:36;;;;;;;9.38;6.78;;;;;;;;;;4976973;28;20101;-77
2023/07/03 14:14:04;;;;;;;8.88;6.97;;;;;;;;;;4994426;28;20444;-77
2023/07/03 14:16:31;;;;;;;8.77;7.15;;;;;;;;;;4986697;28;20162;-77
2023/07/03 14:18:56;;;;;;;8.25;6.78;;;;;;;;;;4993650;28;20066;-76
2023/07/03 14:21:23;;;;;;;8.65;6.97;;;;;;;;;;4994409;28;20030;-77
2023/07/03 14:23:50;;;;;;;8.32;7.20;;;;;;;;;;4994199;28;20038;-76
2023/07/03 14:26:16;;;;;;;10.23;7.63;;;;;;;;;;4998676;28;20439;-76
2023/07/03 14:28:44;;;;;;;9.50;7.28;;;;;;;;;;4998855;28;20464;-76
2023/07/03 14:31:14;;;;;;;8.50;7.40;;;;;;;;;;4993381;28;20101;-76
2023/07/03 14:33:40;;;;;;;10.75;7.30;;;;;;;;;;4993339;28;20590;-75
2023/07/03 14:36:07;;;;;;;8.23;7.07;;;;;;;;;;4993300;28;20050;-75
2023/07/03 14:38:33;;;;;;;9.05;7.18;;;;;;;;;;4993163;28;20029;-77
2023/07/03 14:41:00;;;;;;;10.50;7.50;;;;;;;;;;5001543;28;20369;-75
2023/07/03 14:43:26;;;;;;;7.43;6.47;;;;;;;;;;4992034;28;20037;-76
2023/07/03 14:45:52;;;;;;;8.95;7.57;;;;;;;;;;4992504;28;20392;-76
2023/07/03 14:48:18;;;;;;;9.38;7.00;;;;;;;;;;4994090;28;20124;-76
2023/07/03 14:50:43;;;;;;;8.65;7.72;;;;;;;;;;4993782;28;20018;-76
2023/07/03 14:53:11;;;;;;;11.10;7.00;;;;;;;;;;4993488;28;20047;-75
2023/07/03 14:55:36;;;;;;;9.63;6.65;;;;;;;;;;4998522;28;20027;-75
2023/07/03 14:58:02;;;;;;;13.27;7.20;;;;;;;;;;4993235;28;20396;-77
2023/07/03 15:00:28;;;;;;;10.65;7.20;;;;;;;;;;4993414;28;20453;-75
2023/07/03 15:02:54;;;;;;;8.88;6.68;;;;;;;;;;4993422;28;20038;-76
2023/07/03 15:05:20;;;;;;;9.57;7.07;;;;;;;;;;4993409;28;20026;-76
2023/07/03 15:07:47;;;;;;;8.73;7.22;;;;;;;;;;4993648;28;20065;-75
2023/07/03 15:10:15;;;;;;;8.05;7.07;;;;;;;;;;4994072;28;20030;-76
2023/07/03 15:12:44;;;;;;;10.30;7.00;;;;;;;;;;4999088;28;20042;-76
2023/07/03 15:15:10;;;;;;;8.63;6.88;;;;;;;;;;4993941;28;20026;-77
2023/07/03 15:17:40;;;;;;;10.13;7.35;;;;;;;;;;5000163;28;20034;-76
2023/07/03 15:23:15;;;;;;;9.75;7.28;;;;;;;;;;4992981;28;20026;-76
2023/07/03 15:26:53;;;;;;;8.35;6.63;;;;;;;;;;4990262;28;20046;-76
2023/07/03 15:34:17;;;;;;;7.55;6.47;;;;;;;;;;4869493;29;20045;-77
2023/07/03 15:37:11;;;;;;;8.02;6.88;;;;;;;;;;4902732;29;20032;-77
2023/07/03 15:40:28;;;;;;;11.82;6.78;;;;;;;;;;4839168;29;20469;-77
2023/07/03 15:59:15;;;;;;;8.63;6.63;;;;;;;;;;4871367;29;20526;-76
2023/07/03 16:02:45;;;;;;;8.50;7.30;;;;;;;;;;4896897;29;20076;-77
2023/07/03 16:16:45;;;;;;;12.23;7.07;;;;;;;;;;4852163;29;20044;-77
2023/07/03 16:50:28;;;;;;;11.77;7.47;;;;;;;;;;4982322;28;20134;-77
2023/07/03 16:56:52;;;;;;;12.48;7.07;;;;;;;;;;4921458;29;20122;-77
2023/07/03 17:08:05;;;;;;;13.27;7.32;;;;;;;;;;4876830;29;20139;-77
2023/07/03 17:15:42;;;;;;;;;;;;;;;;;;;;;
2023/07/03 17:31:15;;;;;;;;;;;;;;;;;;;;;
2023/07/03 17:34:24;;;;;;;8.80;7.03;;;;;;;;;;4766083;30;20105;-77
2023/07/03 17:38:28;;;;;;;10.20;7.20;;;;;;;;;;4756117;30;20062;-77
2023/07/03 17:45:45;;;;;;;11.35;7.40;;;;;;;;;;4778075;29;20062;-77
2023/07/03 17:53:43;;;;;;;14.48;7.28;;;;;;;;;;4765721;30;20042;-75
2023/07/03 17:56:56;;;;;;;8.60;7.13;;;;;;;;;;4738234;30;20081;-75
2023/07/03 17:59:56;;;;;;;10.20;6.97;;;;;;;;;;4747492;30;20508;-75
2023/07/03 18:03:04;;;;;;;12.02;6.78;;;;;;;;;;4749902;30;20528;-74
2023/07/03 18:10:24;;;;;;;;;;;;;;;;;;;;;
2023/07/03 18:36:00;;;;;;;12.10;8.35;;;;;;;;;;4889476;29;20572;-74
2023/07/03 18:58:12;;;;;;;;;;;;;;;;;;;;;
2023/07/03 19:05:07;;;;;;;10.13;7.72;;;;;;;;;;4834608;29;20048;-74
2023/07/03 19:08:15;;;;;;;;;;;;;;;;;;4833945;29;20481;-74
2023/07/03 19:19:03;;;;;;;32.53;19.58;;;;;;;;;;4794940;29;20548;-75
2023/07/03 19:37:41;;;;;;;15.20;9.68;;;;;;;;;;4775397;29;20153;-74
2023/07/03 19:45:08;;;;;;;;;;;;;;;;;;;;;
2023/07/03 19:49:04;;;;;;;;;;;;;;;;;;;;;
2023/07/03 19:56:12;;;;;;;11.20;7.90;;;;;;;;;;4800131;29;20134;-75
2023/07/03 20:17:36;;;;;;;10.50;7.20;;;;;;;;;;4774453;29;20847;-76
2023/07/03 20:28:41;;;;;;;12.93;7.13;;;;;;;;;;4745028;30;20086;-75
2023/07/03 21:52:11;;;;;;;;;;;;;;;;;;;;;
2023/07/03 22:00:04;;;;;;;;;;;;;;;;;;;;;
2023/07/03 22:38:09;;;;;;;10.55;8.05;;;;;;;;;;4780757;29;20100;-75
2023/07/03 22:41:28;;;;;;;13.07;8.13;;;;;;;;;;4809824;29;20103;-74
